sensor_id;sensor_type;location;lat;lon;timestamp;temperature;humidity
20432;DHT22;10375;49.136;10.366;2022-09-09T00:00:33;12.20;99.90
20432;DHT22;10375;49.136;10.366;2022-09-09T00:09:19;12.20;99.90
20432;DHT22;10375;49.136;10.366;2022-09-09T00:15:43;12.20;99.90
20432;DHT22;10375;49.136;10.366;2022-09-09T00:21:11;12.20;99.90
20432;DHT22;10375;49.136;10.366;2022-09-09T00:23:42;12.10;99.90
20432;DHT22;10375;49.136;10.366;2022-09-09T00:30:12;12.00;99.90
20432;DHT22;10375;49.136;10.366;2022-09-09T00:32:58;12.00;99.90
20432;DHT22;10375;49.136;10.366;2022-09-09T00:35:41;11.90;99.90
20432;DHT22;10375;49.136;10.366;2022-09-09T00:38:36;11.90;99.90
20432;DHT22;10375;49.136;10.366;2022-09-09T00:41:19;11.90;99.90
20432;DHT22;10375;49.136;10.366;2022-09-09T00:44:11;11.70;99.90
20432;DHT22;10375;49.136;10.366;2022-09-09T00:57:32;11.90;99.90
20432;DHT22;10375;49.136;10.366;2022-09-09T01:00:29;11.90;99.90
20432;DHT22;10375;49.136;10.366;2022-09-09T01:17:44;11.90;99.90
20432;DHT22;10375;49.136;10.366;2022-09-09T01:28:11;12.00;99.90
20432;DHT22;10375;49.136;10.366;2022-09-09T01:30:41;12.00;99.90
20432;DHT22;10375;49.136;10.366;2022-09-09T01:33:14;12.00;99.90
20432;DHT22;10375;49.136;10.366;2022-09-09T01:39:29;12.00;99.90
20432;DHT22;10375;49.136;10.366;2022-09-09T01:45:26;11.80;99.90
20432;DHT22;10375;49.136;10.366;2022-09-09T01:47:53;11.80;99.90
20432;DHT22;10375;49.136;10.366;2022-09-09T01:54:08;11.90;99.90
20432;DHT22;10375;49.136;10.366;2022-09-09T02:03:15;12.10;99.90
20432;DHT22;10375;49.136;10.366;2022-09-09T02:09:49;12.10;99.90
20432;DHT22;10375;49.136;10.366;2022-09-09T02:22:06;12.00;99.90
20432;DHT22;10375;49.136;10.366;2022-09-09T02:24:37;11.90;99.90
20432;DHT22;10375;49.136;10.366;2022-09-09T02:27:08;11.90;99.90
20432;DHT22;10375;49.136;10.366;2022-09-09T02:29:40;11.90;99.90
20432;DHT22;10375;49.136;10.366;2022-09-09T02:35:50;12.00;99.90
20432;DHT22;10375;49.136;10.366;2022-09-09T02:38:20;12.10;99.90
20432;DHT22;10375;49.136;10.366;2022-09-09T02:40:48;12.00;99.90
20432;DHT22;10375;49.136;10.366;2022-09-09T02:49:19;12.30;99.90
20432;DHT22;10375;49.136;10.366;2022-09-09T02:55:50;12.40;99.90
20432;DHT22;10375;49.136;10.366;2022-09-09T02:58:22;12.50;99.90
20432;DHT22;10375;49.136;10.366;2022-09-09T03:00:51;12.50;99.90
20432;DHT22;10375;49.136;10.366;2022-09-09T03:03:33;12.50;99.90
20432;DHT22;10375;49.136;10.366;2022-09-09T03:09:19;12.50;99.90
20432;DHT22;10375;49.136;10.366;2022-09-09T03:11:46;12.50;99.90
20432;DHT22;10375;49.136;10.366;2022-09-09T03:17:23;12.40;99.90
20432;DHT22;10375;49.136;10.366;2022-09-09T03:19:53;12.40;99.90
20432;DHT22;10375;49.136;10.366;2022-09-09T03:26:09;12.30;99.90
20432;DHT22;10375;49.136;10.366;2022-09-09T03:32:18;12.10;99.90
20432;DHT22;10375;49.136;10.366;2022-09-09T03:34:45;12.10;99.90
20432;DHT22;10375;49.136;10.366;2022-09-09T03:37:17;12.10;99.90
20432;DHT22;10375;49.136;10.366;2022-09-09T03:40:01;12.10;99.90
20432;DHT22;10375;49.136;10.366;2022-09-09T03:42:29;12.00;99.90
20432;DHT22;10375;49.136;10.366;2022-09-09T03:44:57;12.10;99.90
20432;DHT22;10375;49.136;10.366;2022-09-09T03:47:53;12.00;99.90
20432;DHT22;10375;49.136;10.366;2022-09-09T03:50:20;11.90;99.90
20432;DHT22;10375;49.136;10.366;2022-09-09T03:52:50;11.90;99.90
20432;DHT22;10375;49.136;10.366;2022-09-09T03:58:44;11.80;99.90
20432;DHT22;10375;49.136;10.366;2022-09-09T04:01:12;11.70;99.90
20432;DHT22;10375;49.136;10.366;2022-09-09T04:03:56;11.60;99.90
20432;DHT22;10375;49.136;10.366;2022-09-09T04:06:41;11.60;99.90
20432;DHT22;10375;49.136;10.366;2022-09-09T04:09:08;11.60;99.90
20432;DHT22;10375;49.136;10.366;2022-09-09T04:11:47;11.60;99.90
20432;DHT22;10375;49.136;10.366;2022-09-09T04:14:14;11.60;99.90
20432;DHT22;10375;49.136;10.366;2022-09-09T04:16:41;11.60;99.90
20432;DHT22;10375;49.136;10.366;2022-09-09T04:22:59;11.50;99.90
20432;DHT22;10375;49.136;10.366;2022-09-09T04:25:26;11.60;99.90
20432;DHT22;10375;49.136;10.366;2022-09-09T04:27:57;11.50;99.90
20432;DHT22;10375;49.136;10.366;2022-09-09T04:33:19;11.50;99.90
20432;DHT22;10375;49.136;10.366;2022-09-09T04:35:50;11.50;99.90
20432;DHT22;10375;49.136;10.366;2022-09-09T04:41:58;11.60;99.90
20432;DHT22;10375;49.136;10.366;2022-09-09T04:44:34;11.60;99.90
20432;DHT22;10375;49.136;10.366;2022-09-09T04:47:02;11.50;99.90
20432;DHT22;10375;49.136;10.366;2022-09-09T04:49:32;11.50;99.90
20432;DHT22;10375;49.136;10.366;2022-09-09T04:52:09;11.60;99.90
20432;DHT22;10375;49.136;10.366;2022-09-09T04:54:36;11.50;99.90
20432;DHT22;10375;49.136;10.366;2022-09-09T04:57:04;11.50;99.90
20432;DHT22;10375;49.136;10.366;2022-09-09T04:59:48;11.50;99.90
20432;DHT22;10375;49.136;10.366;2022-09-09T05:02:15;11.60;99.90
20432;DHT22;10375;49.136;10.366;2022-09-09T05:04:42;11.60;99.90
20432;DHT22;10375;49.136;10.366;2022-09-09T05:07:12;11.70;99.90
20432;DHT22;10375;49.136;10.366;2022-09-09T05:09:47;11.70;99.90
20432;DHT22;10375;49.136;10.366;2022-09-09T05:12:16;11.80;99.90
20432;DHT22;10375;49.136;10.366;2022-09-09T05:14:43;11.90;99.90
20432;DHT22;10375;49.136;10.366;2022-09-09T05:17:24;11.90;99.90
20432;DHT22;10375;49.136;10.366;2022-09-09T05:19:51;11.90;99.90
20432;DHT22;10375;49.136;10.366;2022-09-09T05:22:37;12.00;99.90
20432;DHT22;10375;49.136;10.366;2022-09-09T05:25:07;11.90;99.90
20432;DHT22;10375;49.136;10.366;2022-09-09T05:27:35;11.80;99.90
20432;DHT22;10375;49.136;10.366;2022-09-09T05:33:50;12.00;99.90
20432;DHT22;10375;49.136;10.366;2022-09-09T05:36:24;12.00;99.90
20432;DHT22;10375;49.136;10.366;2022-09-09T05:38:51;12.10;99.90
20432;DHT22;10375;49.136;10.366;2022-09-09T05:41:20;12.20;99.90
20432;DHT22;10375;49.136;10.366;2022-09-09T05:44:17;12.20;99.90
20432;DHT22;10375;49.136;10.366;2022-09-09T05:46:44;12.30;99.90
20432;DHT22;10375;49.136;10.366;2022-09-09T05:49:11;12.30;99.90
20432;DHT22;10375;49.136;10.366;2022-09-09T05:54:59;12.40;99.90
20432;DHT22;10375;49.136;10.366;2022-09-09T05:57:27;12.50;99.90
20432;DHT22;10375;49.136;10.366;2022-09-09T06:00:07;12.50;99.90
20432;DHT22;10375;49.136;10.366;2022-09-09T06:02:35;12.60;99.90
20432;DHT22;10375;49.136;10.366;2022-09-09T06:05:04;12.80;99.90
20432;DHT22;10375;49.136;10.366;2022-09-09T06:07:33;13.00;99.90
20432;DHT22;10375;49.136;10.366;2022-09-09T06:10:00;13.30;99.90
20432;DHT22;10375;49.136;10.366;2022-09-09T06:12:31;13.50;99.90
20432;DHT22;10375;49.136;10.366;2022-09-09T06:15:00;13.50;99.90
20432;DHT22;10375;49.136;10.366;2022-09-09T06:17:28;13.50;99.90
20432;DHT22;10375;49.136;10.366;2022-09-09T06:19:58;13.40;99.90
20432;DHT22;10375;49.136;10.366;2022-09-09T06:22:26;13.40;99.90
20432;DHT22;10375;49.136;10.366;2022-09-09T06:24:53;13.40;99.90
20432;DHT22;10375;49.136;10.366;2022-09-09T06:27:27;13.40;99.90
20432;DHT22;10375;49.136;10.366;2022-09-09T06:29:57;13.30;99.90
20432;DHT22;10375;49.136;10.366;2022-09-09T06:32:31;13.30;99.90
20432;DHT22;10375;49.136;10.366;2022-09-09T06:35:01;13.40;99.90
20432;DHT22;10375;49.136;10.366;2022-09-09T06:37:46;13.60;99.90
20432;DHT22;10375;49.136;10.366;2022-09-09T06:40:15;17.60;99.90
20432;DHT22;10375;49.136;10.366;2022-09-09T06:42:49;21.10;99.90
20432;DHT22;10375;49.136;10.366;2022-09-09T06:45:19;22.20;99.90
20432;DHT22;10375;49.136;10.366;2022-09-09T06:47:46;24.50;99.90
20432;DHT22;10375;49.136;10.366;2022-09-09T06:50:13;25.90;97.90
20432;DHT22;10375;49.136;10.366;2022-09-09T06:52:41;27.00;96.00
20432;DHT22;10375;49.136;10.366;2022-09-09T06:55:08;28.30;92.30
20432;DHT22;10375;49.136;10.366;2022-09-09T06:57:40;28.90;88.00
20432;DHT22;10375;49.136;10.366;2022-09-09T07:00:07;27.20;88.20
20432;DHT22;10375;49.136;10.366;2022-09-09T07:02:36;25.70;90.00
20432;DHT22;10375;49.136;10.366;2022-09-09T07:05:08;25.20;90.80
20432;DHT22;10375;49.136;10.366;2022-09-09T07:07:35;27.00;91.00
20432;DHT22;10375;49.136;10.366;2022-09-09T07:10:03;29.10;86.60
20432;DHT22;10375;49.136;10.366;2022-09-09T07:12:32;30.50;80.10
20432;DHT22;10375;49.136;10.366;2022-09-09T07:14:59;31.20;74.70
20432;DHT22;10375;49.136;10.366;2022-09-09T07:17:29;31.50;70.60
20432;DHT22;10375;49.136;10.366;2022-09-09T07:19:56;31.10;70.60
20432;DHT22;10375;49.136;10.366;2022-09-09T07:22:36;31.20;73.80
20432;DHT22;10375;49.136;10.366;2022-09-09T07:25:03;31.60;70.70
20432;DHT22;10375;49.136;10.366;2022-09-09T07:27:55;32.00;68.50
20432;DHT22;10375;49.136;10.366;2022-09-09T07:30:22;32.00;69.20
20432;DHT22;10375;49.136;10.366;2022-09-09T07:33:25;32.40;68.60
20432;DHT22;10375;49.136;10.366;2022-09-09T07:35:53;32.70;63.70
20432;DHT22;10375;49.136;10.366;2022-09-09T07:38:26;32.70;63.40
20432;DHT22;10375;49.136;10.366;2022-09-09T07:40:53;32.10;62.50
20432;DHT22;10375;49.136;10.366;2022-09-09T07:43:26;31.40;65.70
20432;DHT22;10375;49.136;10.366;2022-09-09T07:46:03;30.80;68.00
20432;DHT22;10375;49.136;10.366;2022-09-09T07:48:32;30.50;66.10
20432;DHT22;10375;49.136;10.366;2022-09-09T07:51:05;30.10;65.20
20432;DHT22;10375;49.136;10.366;2022-09-09T07:53:42;29.00;66.50
20432;DHT22;10375;49.136;10.366;2022-09-09T07:56:15;28.60;69.40
20432;DHT22;10375;49.136;10.366;2022-09-09T07:58:51;28.40;70.00
20432;DHT22;10375;49.136;10.366;2022-09-09T08:03:54;27.40;68.90
20432;DHT22;10375;49.136;10.366;2022-09-09T08:06:31;26.90;71.00
20432;DHT22;10375;49.136;10.366;2022-09-09T08:09:00;26.40;70.10
20432;DHT22;10375;49.136;10.366;2022-09-09T08:11:29;25.80;72.60
20432;DHT22;10375;49.136;10.366;2022-09-09T08:14:03;25.50;72.80
20432;DHT22;10375;49.136;10.366;2022-09-09T08:16:33;25.20;74.40
20432;DHT22;10375;49.136;10.366;2022-09-09T08:19:04;25.10;75.50
20432;DHT22;10375;49.136;10.366;2022-09-09T08:21:35;24.90;77.10
20432;DHT22;10375;49.136;10.366;2022-09-09T08:24:03;24.70;76.20
20432;DHT22;10375;49.136;10.366;2022-09-09T08:26:37;24.40;77.70
20432;DHT22;10375;49.136;10.366;2022-09-09T08:29:06;24.30;78.50
20432;DHT22;10375;49.136;10.366;2022-09-09T08:31:39;24.40;78.10
20432;DHT22;10375;49.136;10.366;2022-09-09T08:34:08;24.20;77.70
20432;DHT22;10375;49.136;10.366;2022-09-09T08:36:39;24.50;77.80
20432;DHT22;10375;49.136;10.366;2022-09-09T08:39:07;24.70;77.80
20432;DHT22;10375;49.136;10.366;2022-09-09T08:50:36;24.40;79.20
20432;DHT22;10375;49.136;10.366;2022-09-09T08:55:48;25.30;74.90
20432;DHT22;10375;49.136;10.366;2022-09-09T08:58:18;25.40;76.80
20432;DHT22;10375;49.136;10.366;2022-09-09T09:00:55;25.60;75.50
20432;DHT22;10375;49.136;10.366;2022-09-09T09:06:50;25.80;72.90
20432;DHT22;10375;49.136;10.366;2022-09-09T09:09:22;25.50;75.30
20432;DHT22;10375;49.136;10.366;2022-09-09T09:11:59;25.40;75.40
20432;DHT22;10375;49.136;10.366;2022-09-09T09:14:29;25.40;76.10
20432;DHT22;10375;49.136;10.366;2022-09-09T09:19:34;25.20;77.10
20432;DHT22;10375;49.136;10.366;2022-09-09T09:27:48;25.50;75.00
20432;DHT22;10375;49.136;10.366;2022-09-09T09:30:19;25.60;75.70
20432;DHT22;10375;49.136;10.366;2022-09-09T09:33:08;25.90;75.30
20432;DHT22;10375;49.136;10.366;2022-09-09T09:35:38;25.90;73.60
20432;DHT22;10375;49.136;10.366;2022-09-09T09:38:24;25.30;74.50
20432;DHT22;10375;49.136;10.366;2022-09-09T09:41:11;24.70;75.60
20432;DHT22;10375;49.136;10.366;2022-09-09T09:43:41;24.00;76.70
20432;DHT22;10375;49.136;10.366;2022-09-09T09:46:22;23.70;77.80
20432;DHT22;10375;49.136;10.366;2022-09-09T09:49:00;23.20;79.20
20432;DHT22;10375;49.136;10.366;2022-09-09T09:51:30;23.00;80.80
20432;DHT22;10375;49.136;10.366;2022-09-09T09:54:30;22.90;81.10
20432;DHT22;10375;49.136;10.366;2022-09-09T09:57:12;22.90;82.30
20432;DHT22;10375;49.136;10.366;2022-09-09T09:59:39;23.10;83.50
20432;DHT22;10375;49.136;10.366;2022-09-09T10:02:15;23.40;81.70
20432;DHT22;10375;49.136;10.366;2022-09-09T10:04:43;23.20;82.00
20432;DHT22;10375;49.136;10.366;2022-09-09T10:07:20;23.00;82.60
20432;DHT22;10375;49.136;10.366;2022-09-09T10:09:56;22.70;84.60
20432;DHT22;10375;49.136;10.366;2022-09-09T10:18:12;21.70;86.10
20432;DHT22;10375;49.136;10.366;2022-09-09T10:21:03;21.60;88.30
20432;DHT22;10375;49.136;10.366;2022-09-09T10:29:03;21.50;89.00
20432;DHT22;10375;49.136;10.366;2022-09-09T10:34:31;21.30;89.50
20432;DHT22;10375;49.136;10.366;2022-09-09T10:37:11;21.20;90.30
20432;DHT22;10375;49.136;10.366;2022-09-09T10:42:52;21.40;90.20
20432;DHT22;10375;49.136;10.366;2022-09-09T10:45:34;21.40;90.20
20432;DHT22;10375;49.136;10.366;2022-09-09T10:56:20;21.50;88.00
20432;DHT22;10375;49.136;10.366;2022-09-09T10:58:49;21.60;87.70
20432;DHT22;10375;49.136;10.366;2022-09-09T11:01:27;21.70;87.80
20432;DHT22;10375;49.136;10.366;2022-09-09T11:04:11;21.90;89.30
20432;DHT22;10375;49.136;10.366;2022-09-09T11:06:47;22.40;86.50
20432;DHT22;10375;49.136;10.366;2022-09-09T11:09:17;22.80;85.80
20432;DHT22;10375;49.136;10.366;2022-09-09T11:11:52;23.40;86.10
20432;DHT22;10375;49.136;10.366;2022-09-09T11:14:36;24.00;81.60
20432;DHT22;10375;49.136;10.366;2022-09-09T11:17:19;24.00;82.30
20432;DHT22;10375;49.136;10.366;2022-09-09T11:19:48;24.00;80.90
20432;DHT22;10375;49.136;10.366;2022-09-09T11:22:37;24.30;79.50
20432;DHT22;10375;49.136;10.366;2022-09-09T11:25:37;24.50;77.80
20432;DHT22;10375;49.136;10.366;2022-09-09T11:28:27;24.40;76.60
20432;DHT22;10375;49.136;10.366;2022-09-09T11:33:55;24.10;75.30
20432;DHT22;10375;49.136;10.366;2022-09-09T11:39:36;25.10;73.70
20432;DHT22;10375;49.136;10.366;2022-09-09T11:42:21;25.50;69.50
20432;DHT22;10375;49.136;10.366;2022-09-09T11:44:49;25.60;67.00
20432;DHT22;10375;49.136;10.366;2022-09-09T11:47:28;25.30;68.70
20432;DHT22;10375;49.136;10.366;2022-09-09T11:52:44;24.40;68.50
20432;DHT22;10375;49.136;10.366;2022-09-09T11:55:27;24.00;72.80
20432;DHT22;10375;49.136;10.366;2022-09-09T12:00:39;24.70;71.80
20432;DHT22;10375;49.136;10.366;2022-09-09T12:03:44;24.60;72.00
20432;DHT22;10375;49.136;10.366;2022-09-09T12:09:23;24.00;77.70
20432;DHT22;10375;49.136;10.366;2022-09-09T12:11:52;24.60;77.90
20432;DHT22;10375;49.136;10.366;2022-09-09T12:17:22;24.90;75.40
20432;DHT22;10375;49.136;10.366;2022-09-09T12:31:24;24.70;75.70
20432;DHT22;10375;49.136;10.366;2022-09-09T12:33:52;24.50;76.80
20432;DHT22;10375;49.136;10.366;2022-09-09T12:36:27;24.20;76.90
20432;DHT22;10375;49.136;10.366;2022-09-09T12:38:59;23.80;73.80
20432;DHT22;10375;49.136;10.366;2022-09-09T12:41:37;23.40;80.10
20432;DHT22;10375;49.136;10.366;2022-09-09T12:44:10;22.80;82.00
20432;DHT22;10375;49.136;10.366;2022-09-09T12:46:41;22.60;81.40
20432;DHT22;10375;49.136;10.366;2022-09-09T12:49:37;22.50;83.00
20432;DHT22;10375;49.136;10.366;2022-09-09T12:52:31;22.60;83.00
20432;DHT22;10375;49.136;10.366;2022-09-09T12:55:05;23.80;78.70
20432;DHT22;10375;49.136;10.366;2022-09-09T12:57:38;24.70;75.10
20432;DHT22;10375;49.136;10.366;2022-09-09T13:00:18;24.90;72.60
20432;DHT22;10375;49.136;10.366;2022-09-09T13:02:49;24.60;72.10
20432;DHT22;10375;49.136;10.366;2022-09-09T13:05:37;24.10;73.60
20432;DHT22;10375;49.136;10.366;2022-09-09T13:08:08;23.60;76.30
20432;DHT22;10375;49.136;10.366;2022-09-09T13:10:47;23.10;78.80
20432;DHT22;10375;49.136;10.366;2022-09-09T13:13:38;22.70;79.60
20432;DHT22;10375;49.136;10.366;2022-09-09T13:16:17;22.40;81.10
20432;DHT22;10375;49.136;10.366;2022-09-09T13:18:45;22.10;81.70
20432;DHT22;10375;49.136;10.366;2022-09-09T13:21:13;21.80;83.00
20432;DHT22;10375;49.136;10.366;2022-09-09T13:23:41;21.50;83.50
20432;DHT22;10375;49.136;10.366;2022-09-09T13:26:28;21.10;88.80
20432;DHT22;10375;49.136;10.366;2022-09-09T13:29:15;20.00;93.90
20432;DHT22;10375;49.136;10.366;2022-09-09T13:31:45;19.20;96.60
20432;DHT22;10375;49.136;10.366;2022-09-09T13:34:25;18.50;99.30
20432;DHT22;10375;49.136;10.366;2022-09-09T13:37:04;18.00;99.90
20432;DHT22;10375;49.136;10.366;2022-09-09T13:39:37;17.50;99.90
20432;DHT22;10375;49.136;10.366;2022-09-09T13:42:05;17.10;99.90
20432;DHT22;10375;49.136;10.366;2022-09-09T13:44:53;16.80;99.90
20432;DHT22;10375;49.136;10.366;2022-09-09T13:47:34;16.50;99.90
20432;DHT22;10375;49.136;10.366;2022-09-09T13:50:27;16.40;99.90
20432;DHT22;10375;49.136;10.366;2022-09-09T13:52:57;16.20;99.90
20432;DHT22;10375;49.136;10.366;2022-09-09T13:55:28;16.20;99.90
20432;DHT22;10375;49.136;10.366;2022-09-09T13:58:01;16.20;99.90
20432;DHT22;10375;49.136;10.366;2022-09-09T14:00:34;16.40;99.90
20432;DHT22;10375;49.136;10.366;2022-09-09T14:03:02;17.00;99.90
20432;DHT22;10375;49.136;10.366;2022-09-09T14:05:33;17.70;99.90
20432;DHT22;10375;49.136;10.366;2022-09-09T14:08:02;18.10;99.90
20432;DHT22;10375;49.136;10.366;2022-09-09T14:10:31;18.70;99.90
20432;DHT22;10375;49.136;10.366;2022-09-09T14:12:58;19.20;99.90
20432;DHT22;10375;49.136;10.366;2022-09-09T14:15:33;19.80;99.90
20432;DHT22;10375;49.136;10.366;2022-09-09T14:17:59;20.20;99.90
20432;DHT22;10375;49.136;10.366;2022-09-09T14:20:26;20.60;99.90
20432;DHT22;10375;49.136;10.366;2022-09-09T14:22:53;20.70;99.90
20432;DHT22;10375;49.136;10.366;2022-09-09T14:25:22;20.70;99.90
20432;DHT22;10375;49.136;10.366;2022-09-09T14:27:48;20.80;99.90
20432;DHT22;10375;49.136;10.366;2022-09-09T14:30:17;21.00;99.90
20432;DHT22;10375;49.136;10.366;2022-09-09T14:32:45;21.00;99.90
20432;DHT22;10375;49.136;10.366;2022-09-09T14:35:12;21.00;99.90
20432;DHT22;10375;49.136;10.366;2022-09-09T14:37:39;21.00;99.90
20432;DHT22;10375;49.136;10.366;2022-09-09T14:40:06;20.80;99.90
20432;DHT22;10375;49.136;10.366;2022-09-09T14:42:35;20.50;99.90
20432;DHT22;10375;49.136;10.366;2022-09-09T14:45:02;20.10;99.90
20432;DHT22;10375;49.136;10.366;2022-09-09T14:47:29;19.90;99.90
20432;DHT22;10375;49.136;10.366;2022-09-09T14:49:58;19.90;99.90
20432;DHT22;10375;49.136;10.366;2022-09-09T14:52:25;19.80;99.90
20432;DHT22;10375;49.136;10.366;2022-09-09T14:54:52;19.80;99.90
20432;DHT22;10375;49.136;10.366;2022-09-09T14:57:19;19.70;99.90
20432;DHT22;10375;49.136;10.366;2022-09-09T14:59:46;19.70;99.90
20432;DHT22;10375;49.136;10.366;2022-09-09T15:02:14;19.70;99.90
20432;DHT22;10375;49.136;10.366;2022-09-09T15:04:41;19.70;99.90
20432;DHT22;10375;49.136;10.366;2022-09-09T15:07:08;19.80;99.90
20432;DHT22;10375;49.136;10.366;2022-09-09T15:09:35;19.90;99.90
20432;DHT22;10375;49.136;10.366;2022-09-09T15:12:06;20.00;99.90
20432;DHT22;10375;49.136;10.366;2022-09-09T15:14:33;20.00;99.90
20432;DHT22;10375;49.136;10.366;2022-09-09T15:17:02;20.20;99.90
20432;DHT22;10375;49.136;10.366;2022-09-09T15:19:29;20.50;99.90
20432;DHT22;10375;49.136;10.366;2022-09-09T15:21:57;20.80;99.90
20432;DHT22;10375;49.136;10.366;2022-09-09T15:24:26;20.80;99.90
20432;DHT22;10375;49.136;10.366;2022-09-09T15:26:53;20.80;99.90
20432;DHT22;10375;49.136;10.366;2022-09-09T15:29:20;21.00;99.90
20432;DHT22;10375;49.136;10.366;2022-09-09T15:31:48;21.00;99.90
20432;DHT22;10375;49.136;10.366;2022-09-09T15:34:17;21.10;99.90
20432;DHT22;10375;49.136;10.366;2022-09-09T15:36:45;21.30;99.90
20432;DHT22;10375;49.136;10.366;2022-09-09T15:39:15;21.40;99.90
20432;DHT22;10375;49.136;10.366;2022-09-09T15:41:47;21.50;99.90
20432;DHT22;10375;49.136;10.366;2022-09-09T15:44:15;21.70;99.90
20432;DHT22;10375;49.136;10.366;2022-09-09T15:46:54;21.80;99.90
20432;DHT22;10375;49.136;10.366;2022-09-09T15:49:25;21.80;99.90
20432;DHT22;10375;49.136;10.366;2022-09-09T15:51:57;21.90;99.90
20432;DHT22;10375;49.136;10.366;2022-09-09T15:54:31;21.80;99.90
20432;DHT22;10375;49.136;10.366;2022-09-09T15:57:00;21.70;99.90
20432;DHT22;10375;49.136;10.366;2022-09-09T15:59:29;21.50;99.90
20432;DHT22;10375;49.136;10.366;2022-09-09T16:01:58;21.40;99.90
20432;DHT22;10375;49.136;10.366;2022-09-09T16:04:29;21.30;99.90
20432;DHT22;10375;49.136;10.366;2022-09-09T16:06:59;21.10;99.90
20432;DHT22;10375;49.136;10.366;2022-09-09T16:09:27;21.10;99.80
20432;DHT22;10375;49.136;10.366;2022-09-09T16:11:59;21.00;99.90
20432;DHT22;10375;49.136;10.366;2022-09-09T16:14:30;20.80;99.80
20432;DHT22;10375;49.136;10.366;2022-09-09T16:17:01;20.70;99.70
20432;DHT22;10375;49.136;10.366;2022-09-09T16:19:28;20.60;99.50
20432;DHT22;10375;49.136;10.366;2022-09-09T16:21:55;20.40;99.90
20432;DHT22;10375;49.136;10.366;2022-09-09T16:24:22;20.30;99.50
20432;DHT22;10375;49.136;10.366;2022-09-09T16:26:52;20.20;99.90
20432;DHT22;10375;49.136;10.366;2022-09-09T16:29:22;20.10;99.90
20432;DHT22;10375;49.136;10.366;2022-09-09T16:31:50;20.00;99.90
20432;DHT22;10375;49.136;10.366;2022-09-09T16:34:21;19.80;99.90
20432;DHT22;10375;49.136;10.366;2022-09-09T16:36:48;19.70;99.90
20432;DHT22;10375;49.136;10.366;2022-09-09T16:39:17;19.50;99.90
20432;DHT22;10375;49.136;10.366;2022-09-09T16:41:46;19.30;99.90
20432;DHT22;10375;49.136;10.366;2022-09-09T16:44:16;19.10;99.90
20432;DHT22;10375;49.136;10.366;2022-09-09T16:46:47;19.00;99.90
20432;DHT22;10375;49.136;10.366;2022-09-09T16:49:18;18.80;99.90
20432;DHT22;10375;49.136;10.366;2022-09-09T16:51:48;18.70;99.90
20432;DHT22;10375;49.136;10.366;2022-09-09T16:54:16;18.60;99.90
20432;DHT22;10375;49.136;10.366;2022-09-09T16:56:45;18.40;99.90
20432;DHT22;10375;49.136;10.366;2022-09-09T16:59:18;18.30;99.90
20432;DHT22;10375;49.136;10.366;2022-09-09T17:01:49;18.20;99.90
20432;DHT22;10375;49.136;10.366;2022-09-09T17:04:19;18.10;99.90
20432;DHT22;10375;49.136;10.366;2022-09-09T17:06:53;18.20;99.90
20432;DHT22;10375;49.136;10.366;2022-09-09T17:09:22;18.10;99.90
20432;DHT22;10375;49.136;10.366;2022-09-09T17:11:49;18.00;99.90
20432;DHT22;10375;49.136;10.366;2022-09-09T17:14:21;17.90;99.90
20432;DHT22;10375;49.136;10.366;2022-09-09T17:16:49;18.00;99.90
20432;DHT22;10375;49.136;10.366;2022-09-09T17:19:19;17.90;99.90
20432;DHT22;10375;49.136;10.366;2022-09-09T17:21:46;18.00;99.90
20432;DHT22;10375;49.136;10.366;2022-09-09T17:24:36;18.00;99.90
20432;DHT22;10375;49.136;10.366;2022-09-09T17:27:05;17.90;99.90
20432;DHT22;10375;49.136;10.366;2022-09-09T17:29:32;17.60;99.90
20432;DHT22;10375;49.136;10.366;2022-09-09T17:32:03;17.40;99.90
20432;DHT22;10375;49.136;10.366;2022-09-09T17:34:32;17.20;99.90
20432;DHT22;10375;49.136;10.366;2022-09-09T17:37:00;17.00;99.90
20432;DHT22;10375;49.136;10.366;2022-09-09T17:39:30;16.80;99.90
20432;DHT22;10375;49.136;10.366;2022-09-09T17:41:57;16.70;99.90
20432;DHT22;10375;49.136;10.366;2022-09-09T17:44:27;16.50;99.90
20432;DHT22;10375;49.136;10.366;2022-09-09T17:46:55;16.40;99.90
20432;DHT22;10375;49.136;10.366;2022-09-09T17:49:22;16.20;99.90
20432;DHT22;10375;49.136;10.366;2022-09-09T17:51:50;16.20;99.90
20432;DHT22;10375;49.136;10.366;2022-09-09T17:54:19;16.10;99.90
20432;DHT22;10375;49.136;10.366;2022-09-09T17:56:47;16.00;99.90
20432;DHT22;10375;49.136;10.366;2022-09-09T17:59:16;15.90;99.90
20432;DHT22;10375;49.136;10.366;2022-09-09T18:01:48;15.70;99.90
20432;DHT22;10375;49.136;10.366;2022-09-09T18:04:17;15.60;99.90
20432;DHT22;10375;49.136;10.366;2022-09-09T18:06:47;15.50;99.90
20432;DHT22;10375;49.136;10.366;2022-09-09T18:09:21;15.50;99.90
20432;DHT22;10375;49.136;10.366;2022-09-09T18:11:53;15.40;99.90
20432;DHT22;10375;49.136;10.366;2022-09-09T18:14:26;15.30;99.90
20432;DHT22;10375;49.136;10.366;2022-09-09T18:16:54;15.20;99.90
20432;DHT22;10375;49.136;10.366;2022-09-09T18:19:24;15.20;99.90
20432;DHT22;10375;49.136;10.366;2022-09-09T18:21:52;15.20;99.90
20432;DHT22;10375;49.136;10.366;2022-09-09T18:24:23;15.10;99.90
20432;DHT22;10375;49.136;10.366;2022-09-09T18:26:54;15.10;99.90
20432;DHT22;10375;49.136;10.366;2022-09-09T18:29:22;15.00;99.90
20432;DHT22;10375;49.136;10.366;2022-09-09T18:31:53;14.90;99.90
20432;DHT22;10375;49.136;10.366;2022-09-09T18:34:23;14.80;99.90
20432;DHT22;10375;49.136;10.366;2022-09-09T18:36:56;14.70;99.90
20432;DHT22;10375;49.136;10.366;2022-09-09T18:39:26;14.70;99.90
20432;DHT22;10375;49.136;10.366;2022-09-09T18:41:56;14.70;99.90
20432;DHT22;10375;49.136;10.366;2022-09-09T18:44:32;14.70;99.90
20432;DHT22;10375;49.136;10.366;2022-09-09T18:46:59;14.70;99.90
20432;DHT22;10375;49.136;10.366;2022-09-09T18:49:27;14.80;99.90
20432;DHT22;10375;49.136;10.366;2022-09-09T18:51:54;14.80;99.90
20432;DHT22;10375;49.136;10.366;2022-09-09T18:54:25;14.80;99.90
20432;DHT22;10375;49.136;10.366;2022-09-09T18:56:52;15.00;99.90
20432;DHT22;10375;49.136;10.366;2022-09-09T18:59:22;14.90;99.90
20432;DHT22;10375;49.136;10.366;2022-09-09T19:01:52;14.80;99.90
20432;DHT22;10375;49.136;10.366;2022-09-09T19:04:21;14.90;99.90
20432;DHT22;10375;49.136;10.366;2022-09-09T19:06:49;15.00;99.90
20432;DHT22;10375;49.136;10.366;2022-09-09T19:09:28;15.00;99.90
20432;DHT22;10375;49.136;10.366;2022-09-09T19:11:58;14.90;99.90
20432;DHT22;10375;49.136;10.366;2022-09-09T19:14:25;14.80;99.90
20432;DHT22;10375;49.136;10.366;2022-09-09T19:16:52;14.80;99.90